createdAt,value
2019-04-19T00:01:02.715Z,65.22
2019-04-19T00:03:32.187Z,65.41
2019-04-19T00:08:43.597Z,65.03
2019-04-19T00:11:12.983Z,65.25
2019-04-19T00:13:26.359Z,64.97
2019-04-19T00:15:54.460Z,66.76
2019-04-19T00:21:13.772Z,67.29
2019-04-19T00:23:33.066Z,68.01
2019-04-19T00:25:54.015Z,68.01
2019-04-19T00:28:32.269Z,67.25
2019-04-19T00:33:33.035Z,68.02
2019-04-19T00:35:53.814Z,69.73
2019-04-19T00:38:38.320Z,68.21
2019-04-19T00:41:09.291Z,68.37
2019-04-19T00:46:17.152Z,69.97
2019-04-19T00:48:39.862Z,69.40
2019-04-19T00:53:36.480Z,69.25
2019-04-19T00:56:05.771Z,71.85
2019-04-19T00:58:29.414Z,73.39
2019-04-19T01:00:57.914Z,70.92
2019-04-19T01:03:30.740Z,72.54
2019-04-19T01:05:59.045Z,71.68
2019-04-19T01:08:24.015Z,70.70
2019-04-19T01:11:06.055Z,73.22
2019-04-19T01:13:38.250Z,74.31
2019-04-19T01:23:29.419Z,73.09
2019-04-19T01:26:03.555Z,73.87
2019-04-19T01:28:28.644Z,76.12
2019-04-19T01:30:54.951Z,76.86
2019-04-19T01:33:31.138Z,77.92
2019-04-19T01:35:56.899Z,77.56
2019-04-19T01:38:25.186Z,77.94
2019-04-19T01:43:46.332Z,72.45
2019-04-19T01:46:11.960Z,75.98
2019-04-19T01:51:38.884Z,79.74
2019-04-19T01:54:06.605Z,81.33
2019-04-19T01:56:16.998Z,82.00
2019-04-19T01:58:49.197Z,81.14
2019-04-19T02:01:15.480Z,81.37
2019-04-19T02:03:44.976Z,77.83
2019-04-19T02:08:48.043Z,81.00
2019-04-19T02:11:39.814Z,83.98
2019-04-19T02:14:05.948Z,81.78
2019-04-19T02:16:28.234Z,82.71
2019-04-19T02:19:02.299Z,81.98
2019-04-19T02:21:28.974Z,82.50
2019-04-19T02:23:54.701Z,78.94
2019-04-19T02:29:02.604Z,79.49
2019-04-19T02:31:43.525Z,81.07
2019-04-19T02:37:04.545Z,82.47
2019-04-19T02:41:58.014Z,80.88
2019-04-19T02:44:17.118Z,81.90
2019-04-19T02:46:55.903Z,80.57
2019-04-19T02:49:21.822Z,83.93
2019-04-19T02:51:50.226Z,84.03
2019-04-19T02:59:26.342Z,83.90
2019-04-19T03:06:36.779Z,86.30
2019-04-19T03:08:54.522Z,86.81
2019-04-19T03:11:35.306Z,87.12
2019-04-19T03:16:49.242Z,86.52
2019-04-19T03:19:05.814Z,86.64
2019-04-19T03:21:40.677Z,86.98
2019-04-19T03:24:08.806Z,86.87
2019-04-19T03:28:59.066Z,86.49
2019-04-19T03:31:58.896Z,86.12
2019-04-19T03:36:39.075Z,85.51
2019-04-19T03:39:15.838Z,86.49
2019-04-19T03:41:57.399Z,88.88
2019-04-19T03:44:18.479Z,88.92
2019-04-19T03:46:55.858Z,87.90
2019-04-19T03:49:19.756Z,88.56
2019-04-19T03:51:40.987Z,87.75
2019-04-19T03:54:08.318Z,87.33
2019-04-19T03:56:37.780Z,85.96
2019-04-19T03:58:48.301Z,82.55
2019-04-19T04:01:17.505Z,85.04
2019-04-19T04:03:49.720Z,88.29
2019-04-19T04:09:00.387Z,87.06
2019-04-19T04:11:27.775Z,88.26
2019-04-19T04:14:13.878Z,88.71
2019-04-19T04:18:59.852Z,87.17
2019-04-19T04:21:35.434Z,88.91
2019-04-19T04:24:10.100Z,87.54
2019-04-19T04:26:34.848Z,88.05
2019-04-19T04:29:06.928Z,91.56
2019-04-19T04:31:28.146Z,89.54
2019-04-19T04:34:00.550Z,90.79
2019-04-19T04:36:36.227Z,90.36
2019-04-19T04:38:49.542Z,90.66
2019-04-19T04:41:21.776Z,89.75
2019-04-19T04:44:06.911Z,90.74
2019-04-19T04:46:41.306Z,89.88
2019-04-19T04:49:07.192Z,89.62
2019-04-19T04:51:39.337Z,87.84
2019-04-19T04:53:55.340Z,88.83
2019-04-19T04:56:27.877Z,86.48
2019-04-19T04:58:53.981Z,87.94
2019-04-19T05:01:33.254Z,87.40
2019-04-19T05:04:07.392Z,88.76
2019-04-19T05:06:35.279Z,89.68
2019-04-19T05:09:04.117Z,90.79
2019-04-19T05:11:30.542Z,88.02
2019-04-19T05:14:08.185Z,87.16
2019-04-19T05:16:51.342Z,85.69
2019-04-19T05:19:00.637Z,85.10
2019-04-19T05:21:28.572Z,83.86
2019-04-19T05:23:59.662Z,83.86
2019-04-19T05:28:50.200Z,80.90
2019-04-19T05:31:09.016Z,82.81
2019-04-19T05:33:47.492Z,80.27
2019-04-19T05:36:17.794Z,82.00
2019-04-19T05:38:56.049Z,80.56
2019-04-19T05:41:12.242Z,80.68
2019-04-19T05:44:21.931Z,80.49
2019-04-19T05:46:44.375Z,80.27
2019-04-19T05:49:04.743Z,80.27
2019-04-19T05:51:38.692Z,80.81
2019-04-19T05:53:51.882Z,78.55
2019-04-19T05:56:15.740Z,78.51
2019-04-19T05:58:55.764Z,79.13
2019-04-19T06:01:34.268Z,77.61
2019-04-19T06:03:57.406Z,75.98
2019-04-19T06:06:33.668Z,74.11
2019-04-19T06:08:39.362Z,73.10
2019-04-19T06:11:07.326Z,72.89
2019-04-19T06:13:36.401Z,70.78
2019-04-19T06:16:21.140Z,71.04
2019-04-19T06:18:46.392Z,70.34
2019-04-19T06:23:58.406Z,68.96
2019-04-19T06:26:54.880Z,68.02
2019-04-19T06:29:02.697Z,67.81
2019-04-19T06:31:27.034Z,65.15
2019-04-19T06:33:47.122Z,65.78
2019-04-19T06:38:35.448Z,65.46
2019-04-19T06:41:10.303Z,63.73
2019-04-19T06:46:20.173Z,62.67
2019-04-19T06:48:43.117Z,61.84
2019-04-19T06:53:49.462Z,61.29
2019-04-19T06:56:16.328Z,61.22
2019-04-19T06:58:46.660Z,58.93
2019-04-19T07:01:18.169Z,57.56
2019-04-19T07:03:34.451Z,58.68
2019-04-19T07:06:19.563Z,56.46
2019-04-19T07:09:06.255Z,57.08
2019-04-19T07:11:23.747Z,55.47
2019-04-19T07:13:41.020Z,57.08
2019-04-19T07:21:25.893Z,53.30
2019-04-19T07:23:49.835Z,55.44
2019-04-19T07:28:34.100Z,53.72
2019-04-19T07:31:05.957Z,53.35
2019-04-19T07:33:41.336Z,53.57
2019-04-19T07:36:17.398Z,54.16
2019-04-19T07:38:50.641Z,51.50
2019-04-19T07:41:09.942Z,51.55
2019-04-19T07:46:21.126Z,51.45
2019-04-19T07:48:27.864Z,51.19
2019-04-19T07:51:02.221Z,50.15
2019-04-19T07:53:32.079Z,50.63
2019-04-19T07:56:00.809Z,50.56
2019-04-19T08:01:20.587Z,48.93
2019-04-19T08:06:32.709Z,48.78
2019-04-19T08:08:56.648Z,49.40
2019-04-19T08:13:44.374Z,47.78
2019-04-19T08:28:26.362Z,45.19
2019-04-19T08:30:48.654Z,44.89
2019-04-19T08:33:12.623Z,44.51
2019-04-19T08:35:46.298Z,44.61
2019-04-19T08:38:17.579Z,43.85
2019-04-19T08:40:53.807Z,41.14
2019-04-19T08:43:21.189Z,44.15
2019-04-19T08:45:38.256Z,42.20
2019-04-19T08:48:15.618Z,43.12
2019-04-19T08:50:55.909Z,42.91
2019-04-19T08:56:11.670Z,41.02
2019-04-19T08:58:43.322Z,39.83
2019-04-19T09:03:51.231Z,35.62
2019-04-19T09:07:05.464Z,34.56
2019-04-19T09:11:16.078Z,32.81
2019-04-19T09:13:51.029Z,29.54
2019-04-19T09:18:59.518Z,26.66
2019-04-19T09:21:16.928Z,27.71
2019-04-19T09:23:38.665Z,30.56
2019-04-19T09:26:09.829Z,25.83
2019-04-19T09:28:46.342Z,22.93
2019-04-19T09:31:09.912Z,23.65
2019-04-19T09:33:29.589Z,27.14
2019-04-19T09:35:58.679Z,24.77
2019-04-19T09:38:32.585Z,24.37
2019-04-19T09:40:55.861Z,23.38
2019-04-19T09:43:28.973Z,20.78
2019-04-19T09:45:44.955Z,21.18
2019-04-19T09:48:31.636Z,21.47
2019-04-19T09:50:56.097Z,27.41
2019-04-19T09:53:39.588Z,22.99
2019-04-19T09:55:57.203Z,26.38
2019-04-19T09:58:26.512Z,22.51
2019-04-19T10:00:38.836Z,22.73
2019-04-19T10:03:18.866Z,20.74
2019-04-19T10:08:11.452Z,22.03
2019-04-19T10:10:38.864Z,22.23
2019-04-19T10:13:07.744Z,20.86
2019-04-19T10:15:36.250Z,19.17
2019-04-19T10:18:04.780Z,18.52
2019-04-19T10:20:32.982Z,20.04
2019-04-19T10:23:02.235Z,20.99
2019-04-19T10:25:29.636Z,21.26
2019-04-19T10:27:57.804Z,24.50
2019-04-19T10:30:37.048Z,23.51
2019-04-19T10:33:06.603Z,21.07
2019-04-19T10:35:33.739Z,23.22
2019-04-19T10:38:02.107Z,19.85
2019-04-19T10:43:05.185Z,20.86
2019-04-19T10:45:34.192Z,22.32
2019-04-19T10:48:02.479Z,17.82
2019-04-19T10:50:41.964Z,18.49
2019-04-19T10:53:01.156Z,17.28
2019-04-19T10:55:31.970Z,18.26
2019-04-19T10:58:01.133Z,17.21
2019-04-19T11:00:29.292Z,16.77
2019-04-19T11:02:57.050Z,16.48
2019-04-19T11:05:25.500Z,19.47
2019-04-19T11:07:53.882Z,18.33
2019-04-19T11:10:22.224Z,19.92
2019-04-19T11:12:50.579Z,16.22
2019-04-19T11:15:20.243Z,18.53
2019-04-19T11:17:49.779Z,17.27
2019-04-19T11:20:30.843Z,15.96
2019-04-19T11:22:45.995Z,17.59
2019-04-19T11:25:14.395Z,17.81
2019-04-19T11:27:42.884Z,15.54
2019-04-19T11:30:10.903Z,14.93
2019-04-19T11:35:17.188Z,15.13
2019-04-19T11:40:22.705Z,17.12
2019-04-19T11:42:51.214Z,16.90
2019-04-19T11:45:19.754Z,18.61
2019-04-19T11:47:49.052Z,18.11
2019-04-19T11:50:17.831Z,15.81
2019-04-19T11:52:45.960Z,14.70
2019-04-19T11:55:13.165Z,14.66
2019-04-19T11:57:41.856Z,14.27
2019-04-19T12:00:11.463Z,14.11
2019-04-19T12:02:39.954Z,14.60
2019-04-19T12:05:17.666Z,13.57
2019-04-19T12:07:36.803Z,14.86
2019-04-19T12:10:04.719Z,15.51
2019-04-19T12:12:33.152Z,16.10
2019-04-19T12:17:35.962Z,18.54
2019-04-19T12:25:12.893Z,17.13
2019-04-19T12:27:41.558Z,17.11
2019-04-19T12:30:09.714Z,17.20
2019-04-19T12:35:14.469Z,14.82
2019-04-19T12:37:47.494Z,14.63
2019-04-19T12:40:15.219Z,17.02
2019-04-19T12:42:44.203Z,15.42
2019-04-19T12:45:13.245Z,14.44
2019-04-19T12:47:40.686Z,13.79
2019-04-19T12:50:09.874Z,14.75
2019-04-19T12:52:37.967Z,14.96
2019-04-19T12:55:05.995Z,18.16
2019-04-19T12:57:34.075Z,18.83
2019-04-19T13:02:45.099Z,18.38
2019-04-19T13:05:14.143Z,16.86
2019-04-19T13:07:43.079Z,14.00
2019-04-19T13:10:11.017Z,13.79
2019-04-19T13:12:39.040Z,13.89
2019-04-19T13:15:07.194Z,13.65
2019-04-19T13:17:36.054Z,13.54
2019-04-19T13:20:12.069Z,14.61
2019-04-19T13:22:32.474Z,15.23
2019-04-19T13:25:01.643Z,14.16
2019-04-19T13:27:41.654Z,14.77
2019-04-19T13:30:08.749Z,15.38
2019-04-19T13:32:26.031Z,15.69
2019-04-19T13:34:54.903Z,15.03
2019-04-19T13:42:55.227Z,14.25
2019-04-19T13:45:26.811Z,15.17
2019-04-19T13:47:48.987Z,14.12
2019-04-19T13:50:26.088Z,13.15
2019-04-19T13:52:46.729Z,13.74
2019-04-19T13:55:14.823Z,13.62
2019-04-19T13:57:43.630Z,14.76
2019-04-19T14:00:13.430Z,13.59
2019-04-19T14:02:41.118Z,13.95
2019-04-19T14:05:09.410Z,13.41
2019-04-19T14:07:37.542Z,13.56
2019-04-19T14:10:05.893Z,14.31
2019-04-19T14:12:34.272Z,13.61
2019-04-19T14:15:04.541Z,14.11
2019-04-19T14:20:07.108Z,15.12
2019-04-19T14:22:37.369Z,13.59
2019-04-19T14:25:05.353Z,14.66
2019-04-19T14:27:33.276Z,16.00
2019-04-19T14:30:01.664Z,16.74
2019-04-19T14:35:05.792Z,14.19
2019-04-19T14:37:34.105Z,16.68
2019-04-19T14:40:02.770Z,16.12
2019-04-19T14:42:31.085Z,15.93
2019-04-19T14:50:07.388Z,13.62
2019-04-19T14:52:36.600Z,12.75
2019-04-19T15:00:12.803Z,13.61
2019-04-19T15:05:25.702Z,15.04
2019-04-19T15:07:54.577Z,13.37
2019-04-19T15:10:22.254Z,13.12
2019-04-19T15:15:24.987Z,13.28
2019-04-19T15:17:54.088Z,14.47
2019-04-19T15:22:56.109Z,14.07
2019-04-19T15:25:25.520Z,13.33
2019-04-19T15:27:52.958Z,15.46
2019-04-19T15:32:56.577Z,13.34
2019-04-19T15:35:25.634Z,13.61
2019-04-19T15:37:53.992Z,13.67
2019-04-19T15:42:56.903Z,13.56
2019-04-19T15:45:25.214Z,13.58
2019-04-19T15:47:53.277Z,13.72
2019-04-19T15:50:22.444Z,13.46
2019-04-19T15:52:51.848Z,14.13
2019-04-19T15:55:20.406Z,14.82
2019-04-19T15:57:48.798Z,14.42
2019-04-19T16:00:18.096Z,14.91
2019-04-19T16:02:47.848Z,14.96
2019-04-19T16:05:20.515Z,14.17
2019-04-19T16:08:04.088Z,15.02
2019-04-19T16:10:30.859Z,16.36
2019-04-19T16:12:59.957Z,18.90
2019-04-19T16:15:27.419Z,20.44
2019-04-19T16:17:55.812Z,20.37
2019-04-19T16:22:58.434Z,21.82
2019-04-19T16:25:27.365Z,22.53
2019-04-19T16:30:30.465Z,22.62
2019-04-19T16:35:32.228Z,22.97
2019-04-19T16:38:01.440Z,24.50
2019-04-19T16:43:03.545Z,22.89
2019-04-19T16:45:32.295Z,24.47
2019-04-19T16:48:00.410Z,23.52
2019-04-19T16:50:30.384Z,24.27
2019-04-19T16:52:59.102Z,24.35
2019-04-19T16:55:27.638Z,24.49
2019-04-19T17:00:36.544Z,25.04
2019-04-19T17:03:06.985Z,25.06
2019-04-19T17:05:34.772Z,24.94
2019-04-19T17:08:03.655Z,25.53
2019-04-19T17:10:31.793Z,25.51
2019-04-19T17:13:01.118Z,26.08
2019-04-19T17:15:32.777Z,25.75
2019-04-19T17:20:39.542Z,26.39
2019-04-19T17:23:08.570Z,27.95
2019-04-19T17:25:36.946Z,27.05
2019-04-19T17:30:42.241Z,27.62
2019-04-19T17:33:10.442Z,28.11
2019-04-19T17:35:38.345Z,28.52
2019-04-19T17:38:06.040Z,27.79
2019-04-19T17:40:34.472Z,28.45
2019-04-19T17:43:03.572Z,28.70
2019-04-19T17:45:31.940Z,28.29
2019-04-19T17:48:00.657Z,28.82
2019-04-19T17:50:29.014Z,29.47
2019-04-19T17:55:40.666Z,30.00
2019-04-19T17:58:01.116Z,30.53
2019-04-19T18:00:30.268Z,30.25
2019-04-19T18:02:57.319Z,30.80
2019-04-19T18:05:26.343Z,31.89
2019-04-19T18:07:54.171Z,30.58
2019-04-19T18:12:57.096Z,30.82
2019-04-19T18:15:25.733Z,31.21
2019-04-19T18:20:29.072Z,33.08
2019-04-19T18:25:33.112Z,31.89
2019-04-19T18:28:01.627Z,33.52
2019-04-19T18:33:06.536Z,33.36
2019-04-19T18:35:35.872Z,34.36
2019-04-19T18:38:03.229Z,34.22
2019-04-19T18:40:31.623Z,34.11
2019-04-19T18:43:14.862Z,33.58
2019-04-19T18:45:30.640Z,33.99
2019-04-19T18:47:56.950Z,34.22
2019-04-19T18:50:26.387Z,35.93
2019-04-19T18:55:35.227Z,34.21
2019-04-19T19:00:35.609Z,35.24
2019-04-19T19:03:05.933Z,35.85
2019-04-19T19:05:36.850Z,35.78
2019-04-19T19:08:09.418Z,35.48
2019-04-19T19:10:37.535Z,36.10
2019-04-19T19:15:41.917Z,36.75
2019-04-19T19:18:02.967Z,37.21
2019-04-19T19:20:34.494Z,38.09
2019-04-19T19:23:15.347Z,37.30
2019-04-19T19:28:06.417Z,38.39
2019-04-19T19:38:19.776Z,37.64
2019-04-19T19:40:58.341Z,38.68
2019-04-19T19:41:56.627Z,38.86
2019-04-19T19:43:29.304Z,39.17
2019-04-19T19:45:51.477Z,37.43
2019-04-19T19:48:26.064Z,39.45
2019-04-19T19:50:58.841Z,39.67
2019-04-19T19:53:38.598Z,40.69
2019-04-19T19:56:05.358Z,41.54
2019-04-19T19:58:16.078Z,42.27
2019-04-19T20:00:43.050Z,42.42
2019-04-19T20:03:12.515Z,42.70
2019-04-19T20:05:33.275Z,42.67
2019-04-19T20:07:57.445Z,41.55
2019-04-19T20:13:06.235Z,42.37
2019-04-19T20:15:33.896Z,41.75
2019-04-19T20:18:00.243Z,41.42
2019-04-19T20:20:32.985Z,44.03
2019-04-19T20:22:58.201Z,44.35
2019-04-19T20:28:01.392Z,44.66
2019-04-19T20:30:36.980Z,44.61
2019-04-19T20:33:01.177Z,45.76
2019-04-19T20:35:28.089Z,47.01
2019-04-19T20:37:58.621Z,47.18
2019-04-19T20:43:20.464Z,46.15
2019-04-19T20:45:36.976Z,49.07
2019-04-19T20:47:57.911Z,48.77
2019-04-19T20:53:18.286Z,46.61
2019-04-19T20:58:19.188Z,48.73
2019-04-19T21:03:14.752Z,49.47
2019-04-19T21:08:15.921Z,49.70
2019-04-19T21:10:50.008Z,50.19
2019-04-19T21:13:15.183Z,51.27
2019-04-19T21:15:40.566Z,52.01
2019-04-19T21:18:09.600Z,51.78
2019-04-19T21:23:16.658Z,52.31
2019-04-19T21:30:54.115Z,53.71
2019-04-19T21:33:18.404Z,53.96
2019-04-19T21:35:50.191Z,54.14
2019-04-19T21:38:17.689Z,52.99
2019-04-19T21:40:43.611Z,54.75
2019-04-19T21:43:10.015Z,54.80
2019-04-19T21:45:41.876Z,56.76
2019-04-19T21:48:06.002Z,53.26
2019-04-19T21:50:41.247Z,54.25
2019-04-19T21:53:08.552Z,57.25
2019-04-19T21:55:38.610Z,55.71
2019-04-19T22:00:36.791Z,56.41
2019-04-19T22:03:05.791Z,58.21
2019-04-19T22:05:35.701Z,57.72
2019-04-19T22:08:00.687Z,57.11
2019-04-19T22:10:34.579Z,59.37
2019-04-19T22:12:58.696Z,57.84
2019-04-19T22:15:25.831Z,59.24
2019-04-19T22:18:01.382Z,56.76
2019-04-19T22:20:25.022Z,58.93
2019-04-19T22:22:53.908Z,58.78
2019-04-19T22:25:36.313Z,59.17
2019-04-19T22:27:49.626Z,61.19
2019-04-19T22:30:17.976Z,62.02
2019-04-19T22:32:51.219Z,60.53
2019-04-19T22:35:18.490Z,62.05
2019-04-19T22:37:43.224Z,60.38
2019-04-19T22:40:11.063Z,61.82
2019-04-19T22:42:48.616Z,63.33
2019-04-19T22:45:11.635Z,62.83
2019-04-19T22:47:37.893Z,59.41
2019-04-19T22:50:10.846Z,64.09
2019-04-19T22:52:34.658Z,64.32
2019-04-19T22:55:08.872Z,63.17
2019-04-19T23:00:07.589Z,62.64
2019-04-19T23:05:11.156Z,62.59
2019-04-19T23:07:46.671Z,64.17
2019-04-19T23:10:08.750Z,63.49
2019-04-19T23:12:37.520Z,63.27
2019-04-19T23:15:10.165Z,64.23
2019-04-19T23:17:38.054Z,64.65
2019-04-19T23:20:01.311Z,61.41
2019-04-19T23:22:34.470Z,63.30
2019-04-19T23:25:02.177Z,65.06
2019-04-19T23:27:38.295Z,64.79
2019-04-19T23:29:56.255Z,66.91
2019-04-19T23:32:28.579Z,65.91
2019-04-19T23:37:26.168Z,63.03
2019-04-19T23:39:55.850Z,66.83
2019-04-19T23:42:23.030Z,67.69
2019-04-19T23:47:29.805Z,65.63
2019-04-19T23:49:57.114Z,67.97
2019-04-19T23:52:23.403Z,68.04
2019-04-19T23:54:52.376Z,66.68
2019-04-19T23:57:25.025Z,67.23
2019-04-19T23:59:52.423Z,65.70
